Time;durP1;ratioP1;P1;durP2;ratioP2;P2;SDS_P1;SDS_P2;PMS_P1;PMS_P2;Temp;Humidity;BMP_temperature;BMP_pressure;BME280_temperature;BME280_humidity;BME280_pressure;Samples;Min_cycle;Max_cycle;Signal;HPM_P1;HPM_P2
2022/01/23 00:02:18;;;;;;;31.85;14.32;;;2.20;99.90;;;;;;5010212;28;20037;-83
2022/01/23 00:04:44;;;;;;;27.02;14.30;;;2.20;99.90;;;;;;5020467;28;20117;-82
2022/01/23 00:07:13;;;;;;;35.15;15.43;;;2.30;99.90;;;;;;5026099;28;20026;-83
2022/01/23 00:09:39;;;;;;;35.40;16.58;;;2.30;99.90;;;;;;5024790;28;20021;-83
2022/01/23 00:12:11;;;;;;;31.77;16.90;;;2.20;99.90;;;;;;5021940;28;20026;-82
2022/01/23 00:17:23;;;;;;;32.78;17.50;;;2.20;99.90;;;;;;5024093;28;20098;-83
2022/01/23 00:19:51;;;;;;;35.20;18.33;;;2.30;99.90;;;;;;5036622;28;20033;-81
2022/01/23 00:22:19;;;;;;;34.90;18.27;;;2.30;99.90;;;;;;5039055;28;20022;-80
2022/01/23 00:30:28;;;;;;;30.02;16.50;;;2.30;99.90;;;;;;5026665;28;20094;-82
2022/01/23 00:33:00;;;;;;;29.13;15.77;;;2.40;99.90;;;;;;5026803;28;20111;-82
2022/01/23 00:35:27;;;;;;;38.03;17.87;;;2.30;99.90;;;;;;5044419;28;20022;-82
2022/01/23 00:37:54;;;;;;;29.77;16.42;;;2.30;99.90;;;;;;5025230;28;20030;-81
2022/01/23 00:40:20;;;;;;;33.70;17.60;;;2.30;99.90;;;;;;5025392;28;20029;-82
2022/01/23 00:42:46;;;;;;;35.55;19.50;;;2.30;99.90;;;;;;5043088;28;20023;-82
2022/01/23 00:45:33;;;;;;;30.88;17.27;;;2.30;99.90;;;;;;5043039;28;20022;-82
2022/01/23 00:48:06;;;;;;;34.30;18.05;;;2.30;99.90;;;;;;5043663;28;20187;-82
2022/01/23 00:50:42;;;;;;;38.22;19.08;;;2.30;99.90;;;;;;5043107;28;20097;-82
2022/01/23 00:53:10;;;;;;;36.08;18.95;;;2.40;99.90;;;;;;5041736;28;20017;-82
2022/01/23 00:55:37;;;;;;;37.60;18.45;;;2.30;99.90;;;;;;5043973;28;20474;-82
2022/01/23 00:58:03;;;;;;;40.95;18.45;;;2.30;99.90;;;;;;5044941;28;20030;-82
2022/01/23 01:00:29;;;;;;;34.55;17.17;;;2.30;99.90;;;;;;5025815;28;20128;-82
2022/01/23 01:02:55;;;;;;;32.05;17.02;;;2.30;99.90;;;;;;5024574;28;20060;-82
2022/01/23 01:05:21;;;;;;;31.20;16.10;;;2.30;99.90;;;;;;5043339;28;20018;-81
2022/01/23 01:07:47;;;;;;;29.70;15.95;;;2.40;99.90;;;;;;5042598;28;20033;-82
2022/01/23 01:10:24;;;;;;;32.35;17.02;;;2.40;99.90;;;;;;5025414;28;20393;-82
2022/01/23 01:12:53;;;;;;;36.95;18.60;;;2.30;99.90;;;;;;5044262;28;20033;-82
2022/01/23 01:34:04;;;;;;;30.60;14.23;;;2.30;99.90;;;;;;5043314;28;20102;-82
2022/01/23 01:36:48;;;;;;;26.85;13.95;;;2.40;99.90;;;;;;5027911;28;20151;-82
2022/01/23 01:39:23;;;;;;;24.25;13.80;;;2.40;99.90;;;;;;5028425;28;20040;-83
2022/01/23 01:41:50;;;;;;;24.63;13.05;;;2.40;99.90;;;;;;5048143;28;20032;-83
2022/01/23 01:44:16;;;;;;;22.45;12.55;;;2.40;99.90;;;;;;5030222;28;20107;-82
2022/01/23 01:46:43;;;;;;;24.45;12.77;;;2.40;99.90;;;;;;5029480;28;20055;-82
2022/01/23 01:49:09;;;;;;;26.17;14.00;;;2.40;99.90;;;;;;5029332;28;20021;-83
2022/01/23 01:51:35;;;;;;;25.17;12.93;;;2.40;99.90;;;;;;5045748;28;20415;-83
2022/01/23 01:54:09;;;;;;;20.92;11.98;;;2.40;99.90;;;;;;5047376;28;20043;-82
2022/01/23 01:56:46;;;;;;;20.15;11.18;;;2.40;99.90;;;;;;5045346;28;20034;-83
2022/01/23 01:59:44;;;;;;;21.23;12.27;;;2.40;99.90;;;;;;5045446;28;20056;-82
2022/01/23 02:10:06;;;;;;;25.08;12.32;;;2.40;99.90;;;;;;5049568;28;20044;-82
2022/01/23 02:13:01;;;;;;;24.50;12.02;;;2.40;99.90;;;;;;5050508;28;20036;-81
2022/01/23 02:50:57;;;;;;;19.75;12.13;;;2.40;99.90;;;;;;5024388;28;20132;-84
2022/01/23 02:55:55;;;;;;;22.43;10.97;;;2.50;99.90;;;;;;5021297;28;20022;-84
2022/01/23 02:58:24;;;;;;;20.45;10.98;;;2.50;99.90;;;;;;5019584;28;20289;-82
2022/01/23 03:01:06;;;;;;;23.58;12.07;;;2.50;99.90;;;;;;5026454;28;20366;-82
2022/01/23 03:03:36;;;;;;;21.67;12.10;;;2.50;99.90;;;;;;5041407;28;20033;-82
2022/01/23 03:30:51;;;;;;;20.48;11.73;;;2.50;99.90;;;;;;5041892;28;20500;-83
2022/01/23 03:33:17;;;;;;;18.50;10.82;;;2.50;99.90;;;;;;5038385;28;20060;-83
2022/01/23 03:35:43;;;;;;;20.65;11.43;;;2.50;99.90;;;;;;5003813;28;20076;-84
2022/01/23 03:38:09;;;;;;;17.27;10.20;;;2.50;99.90;;;;;;5003087;28;20032;-83
2022/01/23 03:40:34;;;;;;;16.98;10.05;;;2.60;99.90;;;;;;5020628;28;20025;-84
2022/01/23 03:43:09;;;;;;;18.55;11.05;;;2.60;99.90;;;;;;5021279;28;20025;-82
2022/01/23 03:50:41;;;;;;;;;;;2.60;99.90;;;;;;5027464;28;20026;-83
2022/01/23 03:53:07;;;;;;;15.57;9.02;;;2.60;99.90;;;;;;5014149;28;19985;-83
2022/01/23 03:55:34;;;;;;;18.27;10.07;;;2.60;99.90;;;;;;5014428;28;20415;-84
2022/01/23 03:58:00;;;;;;;15.77;9.63;;;2.60;99.90;;;;;;5012464;28;20550;-82
2022/01/23 04:00:26;;;;;;;17.48;10.15;;;2.60;99.90;;;;;;5009630;28;20454;-84
2022/01/23 04:02:52;;;;;;;15.93;9.57;;;2.60;99.90;;;;;;5047951;28;20159;-84
2022/01/23 04:05:18;;;;;;;13.50;8.65;;;2.60;99.90;;;;;;5033267;28;20033;-83
2022/01/23 04:07:45;;;;;;;16.50;9.77;;;2.70;99.90;;;;;;5050938;28;20021;-84
2022/01/23 04:10:13;;;;;;;21.92;11.25;;;2.70;99.90;;;;;;5045001;28;20057;-82
2022/01/23 04:20:40;;;;;;;18.67;9.88;;;2.70;99.90;;;;;;5044469;28;20032;-85
2022/01/23 05:01:15;;;;;;;12.07;7.95;;;2.70;99.90;;;;;;5051923;28;20037;-81
2022/01/23 05:06:29;;;;;;;13.38;7.38;;;2.70;99.90;;;;;;5048563;28;20041;-83
2022/01/23 05:08:55;;;;;;;13.88;7.95;;;2.70;99.90;;;;;;5029850;28;20056;-82
2022/01/23 05:11:21;;;;;;;14.10;8.35;;;2.70;99.90;;;;;;5029020;28;20026;-82
2022/01/23 05:13:47;;;;;;;13.23;7.78;;;2.70;99.90;;;;;;5046453;28;20434;-83
2022/01/23 05:16:13;;;;;;;11.45;7.50;;;2.70;99.90;;;;;;5046614;28;20112;-83
2022/01/23 05:18:40;;;;;;;14.90;7.90;;;2.70;99.90;;;;;;5046172;28;20021;-83
2022/01/23 05:23:54;;;;;;;11.98;7.20;;;2.70;99.90;;;;;;5037114;28;20026;-83
2022/01/23 05:26:19;;;;;;;10.23;6.78;;;2.70;99.90;;;;;;5057925;28;20029;-83
2022/01/23 05:28:45;;;;;;;11.00;6.97;;;2.70;99.90;;;;;;5050141;28;20029;-82
2022/01/23 05:31:11;;;;;;;14.23;7.57;;;2.70;99.90;;;;;;5050444;28;20032;-83
2022/01/23 05:33:37;;;;;;;14.38;7.13;;;2.70;99.90;;;;;;5046948;28;20036;-83
2022/01/23 05:36:04;;;;;;;12.43;7.32;;;2.70;99.90;;;;;;5026264;28;20056;-79
2022/01/23 05:38:30;;;;;;;10.52;6.57;;;2.70;99.90;;;;;;5020862;28;20022;-79
2022/01/23 05:40:57;;;;;;;15.85;7.72;;;2.70;99.90;;;;;;5041630;28;20039;-79
2022/01/23 05:43:24;;;;;;;10.57;7.03;;;2.70;99.90;;;;;;5060504;28;20032;-79
2022/01/23 05:45:51;;;;;;;11.70;7.25;;;2.70;99.90;;;;;;5042894;28;20025;-80
2022/01/23 05:48:18;;;;;;;11.73;7.93;;;2.70;99.90;;;;;;5058660;28;20484;-79
2022/01/23 05:50:45;;;;;;;11.77;6.88;;;2.70;99.90;;;;;;5059523;28;20029;-79
2022/01/23 05:53:11;;;;;;;10.88;6.97;;;2.70;99.90;;;;;;5060096;28;20119;-79
2022/01/23 05:55:39;;;;;;;10.60;6.97;;;2.70;99.90;;;;;;5071120;28;20028;-76
2022/01/23 05:58:09;;;;;;;;;;;2.70;99.90;;;;;;5056331;28;20088;-79
2022/01/23 06:00:35;;;;;;;10.20;7.10;;;2.70;99.90;;;;;;5050818;28;19916;-80
2022/01/23 06:03:01;;;;;;;13.15;7.28;;;2.70;99.90;;;;;;5051777;28;20021;-79
2022/01/23 06:05:27;;;;;;;11.50;7.28;;;2.70;99.90;;;;;;5043467;28;20022;-78
2022/01/23 06:07:52;;;;;;;11.75;8.00;;;2.70;99.90;;;;;;5033618;28;20030;-76
2022/01/23 06:10:27;;;;;;;13.50;8.88;;;2.70;99.90;;;;;;5033551;28;20352;-79
2022/01/23 06:12:53;;;;;;;12.18;8.43;;;2.70;99.90;;;;;;5044840;28;20036;-79
2022/01/23 06:15:19;;;;;;;12.60;8.35;;;2.70;99.90;;;;;;5044702;28;20134;-78
2022/01/23 06:17:46;;;;;;;13.40;8.13;;;2.70;99.90;;;;;;5037269;28;20017;-77
2022/01/23 06:20:13;;;;;;;10.10;7.13;;;2.70;99.90;;;;;;5053107;28;20049;-81
2022/01/23 06:22:41;;;;;;;13.18;8.32;;;2.70;99.90;;;;;;5050001;28;20045;-78
2022/01/23 06:25:09;;;;;;;11.38;7.25;;;2.70;99.90;;;;;;5037874;28;20021;-76
2022/01/23 06:27:35;;;;;;;11.57;8.00;;;2.60;99.90;;;;;;5036262;28;20018;-77
2022/01/23 06:30:01;;;;;;;15.02;9.57;;;2.60;99.90;;;;;;5017082;28;20513;-78
2022/01/23 06:32:27;;;;;;;15.85;9.55;;;2.60;99.90;;;;;;5009605;28;20421;-79
2022/01/23 06:34:53;;;;;;;14.23;8.18;;;2.60;99.90;;;;;;5019486;28;20030;-82
2022/01/23 06:37:19;;;;;;;15.25;9.52;;;2.60;99.90;;;;;;5027693;28;20105;-84
2022/01/23 06:39:45;;;;;;;14.20;9.27;;;2.60;99.90;;;;;;5021263;28;20072;-82
2022/01/23 06:42:11;;;;;;;15.07;9.85;;;2.60;99.90;;;;;;5016721;28;20133;-84
2022/01/23 06:44:38;;;;;;;16.50;9.82;;;2.60;99.90;;;;;;5021245;28;20197;-85
2022/01/23 06:47:04;;;;;;;14.35;9.20;;;2.60;99.90;;;;;;5021548;28;20053;-84
2022/01/23 06:49:30;;;;;;;15.30;9.25;;;2.60;99.90;;;;;;5023437;28;20082;-84
2022/01/23 06:51:56;;;;;;;14.55;8.63;;;2.60;99.90;;;;;;5041077;28;20040;-82
2022/01/23 06:54:22;;;;;;;11.57;7.95;;;2.50;99.90;;;;;;5018632;28;20025;-83
2022/01/23 06:56:48;;;;;;;17.17;9.98;;;2.50;99.90;;;;;;5045963;28;20032;-83
2022/01/23 06:59:14;;;;;;;16.40;10.10;;;2.60;99.90;;;;;;5041086;28;20025;-83
2022/01/23 07:01:40;;;;;;;15.10;9.88;;;2.60;99.90;;;;;;5021798;28;20033;-83
2022/01/23 07:04:05;;;;;;;14.45;8.82;;;2.60;99.90;;;;;;5042396;28;20455;-83
2022/01/23 07:06:31;;;;;;;17.23;9.95;;;2.60;99.90;;;;;;5043935;28;20086;-82
2022/01/23 07:08:57;;;;;;;17.73;9.68;;;2.60;99.90;;;;;;5043697;28;20459;-82
2022/01/23 07:11:23;;;;;;;13.57;8.57;;;2.60;99.90;;;;;;5042611;28;20037;-86
2022/01/23 07:13:49;;;;;;;14.85;9.95;;;2.60;99.90;;;;;;5042917;28;20105;-84
2022/01/23 07:16:15;;;;;;;16.20;10.10;;;2.60;99.90;;;;;;5039350;28;20030;-84
2022/01/23 07:18:41;;;;;;;14.70;9.77;;;2.60;99.90;;;;;;5040844;28;20029;-84
2022/01/23 07:21:06;;;;;;;13.82;9.18;;;2.70;99.90;;;;;;5022389;28;20029;-84
2022/01/23 07:23:32;;;;;;;15.30;9.43;;;2.70;99.90;;;;;;5023656;28;20094;-85
2022/01/23 07:25:59;;;;;;;15.68;9.98;;;2.60;99.90;;;;;;5039939;28;20024;-84
2022/01/23 07:28:35;;;;;;;12.82;8.60;;;2.70;99.90;;;;;;5020537;28;20025;-84
2022/01/23 07:31:04;;;;;;;15.43;9.88;;;2.70;99.90;;;;;;5017362;28;20505;-83
2022/01/23 07:33:33;;;;;;;15.82;10.07;;;2.80;99.90;;;;;;5010859;28;20455;-83
2022/01/23 07:35:59;;;;;;;16.38;10.68;;;2.80;99.90;;;;;;5036909;28;20033;-83
2022/01/23 07:38:25;;;;;;;17.75;10.43;;;2.80;99.90;;;;;;5043050;28;20025;-84
2022/01/23 07:40:50;;;;;;;20.15;11.18;;;2.80;99.90;;;;;;5046279;28;20037;-84
2022/01/23 07:43:16;;;;;;;17.33;10.10;;;2.90;99.90;;;;;;5043730;28;20022;-82
2022/01/23 07:45:43;;;;;;;14.68;10.07;;;2.90;99.90;;;;;;5037975;28;20116;-83
2022/01/23 07:48:09;;;;;;;16.88;11.02;;;2.90;99.90;;;;;;5054641;28;20051;-83
2022/01/23 07:50:35;;;;;;;18.67;11.85;;;2.90;99.90;;;;;;5038331;28;20067;-84
2022/01/23 07:53:01;;;;;;;16.92;10.75;;;2.90;99.90;;;;;;5055240;28;20450;-81
2022/01/23 07:55:27;;;;;;;12.70;8.70;;;2.90;99.90;;;;;;5031709;28;20030;-83
2022/01/23 07:57:53;;;;;;;14.02;8.82;;;2.90;99.90;;;;;;5028682;28;20056;-80
2022/01/23 08:00:20;;;;;;;17.05;10.45;;;3.00;99.90;;;;;;5045352;28;20025;-84
2022/01/23 08:02:46;;;;;;;17.27;10.70;;;3.00;99.90;;;;;;5026931;28;20044;-82
2022/01/23 08:05:12;;;;;;;15.75;9.15;;;3.00;99.90;;;;;;5049119;28;20025;-84
2022/01/23 08:07:38;;;;;;;13.95;9.18;;;3.00;99.90;;;;;;5046547;28;20045;-84
2022/01/23 08:10:06;;;;;;;15.82;9.73;;;3.00;99.90;;;;;;5048633;28;20026;-84
2022/01/23 08:12:33;;;;;;;19.48;10.23;;;3.00;99.90;;;;;;5049525;28;20021;-84
2022/01/23 08:15:00;;;;;;;16.02;10.25;;;3.00;99.90;;;;;;5051145;28;20018;-83
2022/01/23 08:17:26;;;;;;;14.52;9.85;;;3.00;99.90;;;;;;5031868;28;20346;-83
2022/01/23 08:20:00;;;;;;;16.38;10.73;;;3.10;99.90;;;;;;5047913;28;20113;-84
2022/01/23 08:22:28;;;;;;;14.90;9.88;;;3.00;99.90;;;;;;5028733;28;20025;-84
2022/01/23 08:24:55;;;;;;;17.75;11.23;;;3.10;99.90;;;;;;5024476;28;20525;-85
2022/01/23 08:27:22;;;;;;;18.85;11.00;;;3.10;99.90;;;;;;5035998;22;20049;-78
2022/01/23 08:29:48;;;;;;;18.77;12.05;;;3.10;99.90;;;;;;5031393;28;20033;-81
2022/01/23 08:32:13;;;;;;;19.35;12.13;;;3.10;99.90;;;;;;5030658;28;20094;-77
2022/01/23 08:34:40;;;;;;;17.30;11.80;;;3.10;99.90;;;;;;5024778;28;20077;-79
2022/01/23 08:37:07;;;;;;;18.10;10.82;;;3.10;99.90;;;;;;5036216;28;20026;-81
2022/01/23 08:39:36;;;;;;;16.92;11.00;;;3.10;99.90;;;;;;5038868;28;20054;-78
2022/01/23 08:42:08;;;;;;;18.35;11.00;;;3.10;99.90;;;;;;5021281;28;20061;-79
2022/01/23 08:44:34;;;;;;;18.95;11.73;;;3.20;99.90;;;;;;5020397;28;20025;-80
2022/01/23 08:47:01;;;;;;;18.10;10.88;;;3.20;99.90;;;;;;5038951;28;20038;-78
2022/01/23 08:49:29;;;;;;;15.00;10.10;;;3.30;99.90;;;;;;5037356;28;20037;-79
2022/01/23 08:51:56;;;;;;;17.73;10.70;;;3.30;99.90;;;;;;5038469;28;20030;-78
2022/01/23 08:54:23;;;;;;;14.90;10.05;;;3.40;99.90;;;;;;5037898;28;20026;-79
2022/01/23 08:56:49;;;;;;;14.18;9.90;;;3.50;99.90;;;;;;5009170;28;20109;-81
2022/01/23 08:59:15;;;;;;;16.65;10.25;;;3.60;99.90;;;;;;5026936;28;20506;-81
2022/01/23 09:01:44;;;;;;;17.52;11.35;;;3.70;99.90;;;;;;5023720;28;20037;-81
2022/01/23 09:04:15;;;;;;;15.88;10.05;;;3.70;99.90;;;;;;5021886;28;20082;-81
2022/01/23 09:06:44;;;;;;;16.30;10.85;;;3.80;99.90;;;;;;5026340;28;20041;-81
2022/01/23 09:09:18;;;;;;;16.80;11.20;;;3.80;99.90;;;;;;5008182;28;20551;-83
2022/01/23 09:12:07;;;;;;;20.08;12.32;;;3.90;99.90;;;;;;5008491;28;20042;-81
2022/01/23 09:14:33;;;;;;;19.05;11.25;;;3.90;99.90;;;;;;5007909;28;20022;-81
2022/01/23 09:17:00;;;;;;;17.05;11.88;;;3.90;99.90;;;;;;5023880;28;20482;-81
2022/01/23 09:19:29;;;;;;;16.52;11.13;;;3.90;99.90;;;;;;5023123;28;20033;-81
2022/01/23 09:21:58;;;;;;;14.98;10.07;;;3.90;99.90;;;;;;5024791;28;20038;-80
2022/01/23 09:24:25;;;;;;;15.15;10.75;;;4.00;99.90;;;;;;5006465;28;20022;-81
2022/01/23 09:26:53;;;;;;;17.02;11.23;;;4.00;99.90;;;;;;5024455;28;20026;-82
2022/01/23 09:29:36;;;;;;;16.52;10.43;;;4.10;99.90;;;;;;5006631;28;20061;-82
2022/01/23 09:32:15;;;;;;;16.85;10.85;;;4.10;99.90;;;;;;5024879;28;20475;-81
2022/01/23 09:34:45;;;;;;;15.05;9.95;;;4.20;99.90;;;;;;5012839;28;20038;-81
2022/01/23 09:37:17;;;;;;;14.48;9.27;;;4.30;99.90;;;;;;5019157;28;20020;-82
2022/01/23 09:39:49;;;;;;;14.20;9.57;;;4.40;99.90;;;;;;5008429;28;20053;-82
2022/01/23 09:42:18;;;;;;;12.50;9.20;;;4.50;99.90;;;;;;5023764;28;20037;-82
2022/01/23 09:44:54;;;;;;;17.33;11.00;;;4.70;99.90;;;;;;5005500;28;20025;-82
2022/01/23 09:47:21;;;;;;;15.07;10.40;;;4.80;99.90;;;;;;5006964;28;20033;-79
2022/01/23 09:49:52;;;;;;;13.98;9.73;;;4.80;99.90;;;;;;5022905;28;20536;-81
2022/01/23 09:52:19;;;;;;;13.50;9.43;;;4.90;99.90;;;;;;5024389;28;20041;-81
2022/01/23 09:54:56;;;;;;;15.40;10.98;;;4.90;99.90;;;;;;5023781;28;20022;-81
2022/01/23 09:57:25;;;;;;;17.17;10.75;;;4.80;99.90;;;;;;5023134;28;20041;-81
2022/01/23 09:59:54;;;;;;;18.85;11.70;;;4.70;99.90;;;;;;5024337;28;20126;-81
2022/01/23 10:02:21;;;;;;;17.23;10.38;;;4.80;99.90;;;;;;5023055;28;20149;-80
2022/01/23 10:04:46;;;;;;;16.27;11.40;;;4.80;99.60;;;;;;5007418;28;20018;-81
2022/01/23 10:07:13;;;;;;;14.27;10.48;;;4.80;99.90;;;;;;5009082;28;20017;-81
2022/01/23 10:09:39;;;;;;;16.25;11.27;;;4.80;99.90;;;;;;5022583;28;20026;-82
2022/01/23 10:12:16;;;;;;;19.67;13.20;;;4.90;99.90;;;;;;5022698;28;20493;-81
2022/01/23 10:14:50;;;;;;;18.25;11.98;;;5.00;99.80;;;;;;5024845;28;20486;-79
2022/01/23 10:17:16;;;;;;;17.92;11.32;;;5.00;99.20;;;;;;5025873;28;20026;-81
2022/01/23 10:19:42;;;;;;;16.70;11.88;;;5.00;98.80;;;;;;5029814;28;20038;-81
2022/01/23 10:22:08;;;;;;;16.25;11.23;;;5.00;99.00;;;;;;5024302;28;20040;-81
2022/01/23 10:24:34;;;;;;;17.75;12.27;;;5.00;99.10;;;;;;5025843;28;20029;-80
2022/01/23 10:27:01;;;;;;;15.75;10.10;;;5.10;98.90;;;;;;5024100;28;20022;-81
2022/01/23 10:29:34;;;;;;;15.25;10.32;;;5.10;98.90;;;;;;5022452;28;20064;-83
2022/01/23 10:32:08;;;;;;;15.20;10.73;;;5.20;99.10;;;;;;4997541;28;20057;-82
2022/01/23 10:35:02;;;;;;;17.35;11.77;;;5.30;99.10;;;;;;5011104;28;20026;-81
2022/01/23 10:37:35;;;;;;;16.17;11.65;;;5.30;97.60;;;;;;5002190;28;20117;-82
2022/01/23 10:40:32;;;;;;;16.00;11.05;;;5.30;97.70;;;;;;5022570;28;20026;-81
2022/01/23 10:48:35;;;;;;;13.38;9.40;;;5.10;98.80;;;;;;5022820;28;20104;-81
2022/01/23 10:51:18;;;;;;;17.50;11.65;;;5.00;99.30;;;;;;5022984;28;20079;-81
2022/01/23 10:53:59;;;;;;;16.80;10.98;;;5.20;99.00;;;;;;5023067;28;20022;-81
2022/01/23 10:56:30;;;;;;;14.23;10.15;;;5.20;98.30;;;;;;5022681;28;20022;-79
2022/01/23 10:59:05;;;;;;;14.00;9.75;;;5.30;98.80;;;;;;5003812;28;20034;-81
2022/01/23 11:01:34;;;;;;;15.82;10.10;;;5.30;98.90;;;;;;5019945;28;20057;-82
2022/01/23 11:04:11;;;;;;;15.18;10.30;;;5.30;99.20;;;;;;5009844;28;20030;-82
2022/01/23 11:06:52;;;;;;;16.63;10.95;;;5.50;99.00;;;;;;4983927;28;20029;-81
2022/01/23 11:09:29;;;;;;;13.65;10.18;;;5.60;96.80;;;;;;5007514;28;20018;-82
2022/01/23 11:12:05;;;;;;;13.85;9.85;;;5.60;96.90;;;;;;5003403;28;20030;-82
2022/01/23 11:17:26;;;;;;;15.93;11.13;;;5.70;96.70;;;;;;5023071;28;20076;-82
2022/01/23 11:20:03;;;;;;;16.92;11.43;;;5.80;95.30;;;;;;5022445;28;20029;-81
2022/01/23 11:22:35;;;;;;;14.63;9.93;;;5.70;95.60;;;;;;5021880;28;20048;-80
2022/01/23 11:25:04;;;;;;;;;;;5.70;96.10;;;;;;5022793;28;20495;-78
2022/01/23 11:27:37;;;;;;;15.43;10.07;;;5.70;96.50;;;;;;5004012;28;20440;-78
2022/01/23 11:30:06;;;;;;;14.63;9.80;;;5.70;96.40;;;;;;5020085;28;20105;-81
2022/01/23 11:32:40;;;;;;;14.52;9.40;;;5.90;95.80;;;;;;4995581;28;20482;-81
2022/01/23 11:35:12;;;;;;;12.68;8.27;;;6.00;95.70;;;;;;5006659;28;20026;-80
2022/01/23 11:37:46;;;;;;;15.73;10.25;;;6.10;95.50;;;;;;5002474;28;20045;-81
2022/01/23 11:54:03;;;;;;;13.05;9.57;;;6.00;95.20;;;;;;5022675;28;20360;-80
2022/01/23 11:56:31;;;;;;;17.00;10.48;;;6.00;95.40;;;;;;5005025;28;20026;-80
2022/01/23 11:59:21;;;;;;;15.05;11.07;;;6.10;94.40;;;;;;5004417;28;20057;-81
2022/01/23 12:01:51;;;;;;;16.38;10.63;;;5.80;94.60;;;;;;5022457;28;20046;-81
2022/01/23 12:04:24;;;;;;;15.70;10.45;;;5.60;95.30;;;;;;5014358;28;20033;-80
2022/01/23 12:07:12;;;;;;;15.23;10.55;;;5.40;95.90;;;;;;5022029;28;20022;-81
2022/01/23 12:10:01;;;;;;;15.93;10.05;;;5.20;96.10;;;;;;5021444;28;20355;-80
2022/01/23 12:18:20;;;;;;;15.95;10.18;;;5.10;96.20;;;;;;5026157;28;20033;-80
2022/01/23 12:20:47;;;;;;;17.52;10.85;;;4.90;96.60;;;;;;5009815;28;20037;-80
2022/01/23 12:23:16;;;;;;;17.92;11.80;;;4.80;97.00;;;;;;5005506;28;20019;-80
2022/01/23 12:25:46;;;;;;;17.75;11.23;;;4.80;97.30;;;;;;4989722;28;20061;-81
2022/01/23 12:28:14;;;;;;;20.52;12.73;;;4.80;97.70;;;;;;5006378;28;20034;-80
2022/01/23 12:30:43;;;;;;;18.55;12.35;;;4.80;97.50;;;;;;5010174;28;20053;-81
2022/01/23 12:33:12;;;;;;;17.33;11.50;;;4.60;97.60;;;;;;5017805;28;20038;-79
2022/01/23 12:35:39;;;;;;;18.80;12.30;;;4.40;98.10;;;;;;5026207;28;20368;-81
2022/01/23 12:38:09;;;;;;;22.05;13.13;;;4.40;98.50;;;;;;5025259;28;20025;-80
2022/01/23 12:40:40;;;;;;;19.63;12.52;;;4.30;98.90;;;;;;5025664;28;20403;-80
2022/01/23 12:43:25;;;;;;;18.23;12.05;;;4.20;99.20;;;;;;5027579;28;20057;-79
2022/01/23 12:46:00;;;;;;;19.65;11.85;;;4.20;99.50;;;;;;5026432;28;20494;-81
2022/01/23 12:48:26;;;;;;;19.25;11.48;;;4.20;99.40;;;;;;5025232;28;20121;-81
2022/01/23 12:51:02;;;;;;;16.27;10.82;;;4.20;99.50;;;;;;5042629;28;20044;-81
2022/01/23 12:53:37;;;;;;;17.13;11.13;;;4.30;99.60;;;;;;5047897;28;20027;-82
2022/01/23 12:56:06;;;;;;;19.70;10.98;;;4.40;99.40;;;;;;5043684;28;20026;-82
2022/01/23 12:58:33;;;;;;;17.67;11.45;;;4.50;98.80;;;;;;5018768;28;20042;-82
2022/01/23 13:01:00;;;;;;;15.68;10.57;;;4.60;98.60;;;;;;5005568;28;20062;-81
2022/01/23 13:03:27;;;;;;;14.80;9.55;;;4.70;98.50;;;;;;5018543;28;20033;-81
2022/01/23 13:05:54;;;;;;;14.10;9.35;;;4.90;98.50;;;;;;5005199;28;20082;-82
2022/01/23 13:08:32;;;;;;;12.93;9.57;;;5.00;97.70;;;;;;5006412;28;20044;-82
2022/01/23 13:13:35;;;;;;;12.43;8.82;;;5.10;97.60;;;;;;5004244;28;20065;-83
2022/01/23 13:34:49;;;;;;;11.05;7.25;;;4.80;97.00;;;;;;5015306;28;20030;-82
2022/01/23 13:37:21;;;;;;;9.70;6.57;;;4.70;97.30;;;;;;5010986;28;20025;-82
2022/01/23 13:40:00;;;;;;;11.18;7.50;;;4.60;97.40;;;;;;5015584;28;20045;-83
2022/01/23 13:42:49;;;;;;;10.95;7.63;;;4.60;97.70;;;;;;5017263;28;20026;-82
2022/01/23 13:57:32;;;;;;;10.10;7.07;;;4.40;98.00;;;;;;4983765;28;20034;-83
2022/01/23 14:00:02;;;;;;;10.63;6.88;;;4.40;98.40;;;;;;5003753;28;20045;-81
2022/01/23 14:02:54;;;;;;;13.35;9.20;;;4.40;98.50;;;;;;5018629;28;20068;-80
2022/01/23 14:05:29;;;;;;;13.93;9.00;;;4.30;98.60;;;;;;5024535;28;20018;-81
2022/01/23 14:08:05;;;;;;;16.33;9.98;;;4.30;98.90;;;;;;5025012;28;20844;-81
2022/01/23 14:10:34;;;;;;;13.90;8.77;;;4.20;99.40;;;;;;5021795;28;20030;-82
2022/01/23 14:13:23;;;;;;;13.57;8.35;;;4.20;99.70;;;;;;5005764;28;20034;-83
2022/01/23 14:16:27;;;;;;;17.83;10.70;;;4.10;99.90;;;;;;5022783;28;20034;-80
2022/01/23 14:19:24;;;;;;;15.55;9.60;;;4.10;99.90;;;;;;5023649;28;20050;-80
2022/01/23 14:22:09;;;;;;;14.93;9.63;;;4.10;99.90;;;;;;5024073;28;20030;-81
2022/01/23 14:24:40;;;;;;;16.85;10.60;;;4.10;99.90;;;;;;5025121;28;20018;-81
2022/01/23 14:27:27;;;;;;;;;;;;;;;;;;;;;
2022/01/23 14:30:07;;;;;;;17.05;10.60;;;4.10;99.90;;;;;;5024243;28;20098;-80
2022/01/23 14:32:43;;;;;;;19.83;11.20;;;4.10;99.90;;;;;;5022406;28;20022;-81
2022/01/23 14:35:14;;;;;;;16.80;10.70;;;4.00;99.90;;;;;;5023087;28;20038;-81
2022/01/23 14:37:41;;;;;;;17.20;10.35;;;4.00;99.90;;;;;;5014160;28;20086;-81
2022/01/23 14:40:27;;;;;;;15.05;9.52;;;4.10;99.90;;;;;;5022901;28;20057;-81
2022/01/23 14:43:12;;;;;;;18.30;10.77;;;4.10;99.90;;;;;;5022138;28;20401;-82
2022/01/23 14:45:45;;;;;;;16.73;10.90;;;4.10;99.90;;;;;;5023870;28;20036;-79
2022/01/23 14:48:13;;;;;;;16.95;10.35;;;4.00;99.90;;;;;;5023956;28;20055;-82
2022/01/23 14:50:43;;;;;;;17.00;9.90;;;4.10;99.90;;;;;;5005942;28;20032;-81
2022/01/23 14:53:17;;;;;;;14.90;9.85;;;4.10;99.90;;;;;;5023557;28;20046;-80
2022/01/23 14:56:04;;;;;;;15.43;9.52;;;4.20;99.90;;;;;;5025816;28;20053;-80
2022/01/23 14:58:55;;;;;;;;;;;;;;;;;;;;;
2022/01/23 15:02:13;;;;;;;19.20;12.02;;;4.30;99.90;;;;;;5015298;28;20049;-81
2022/01/23 15:04:59;;;;;;;19.77;11.82;;;4.20;99.90;;;;;;5028549;28;20026;-81
2022/01/23 15:08:14;;;;;;;19.48;12.02;;;4.10;99.90;;;;;;5036426;28;20025;-80
2022/01/23 15:10:43;;;;;;;22.45;12.55;;;4.00;99.90;;;;;;5007903;28;20090;-84
2022/01/23 15:13:10;;;;;;;18.67;12.00;;;4.00;99.90;;;;;;5035288;28;20029;-81
2022/01/23 15:15:36;;;;;;;17.92;10.35;;;4.00;99.90;;;;;;5031482;28;20026;-80
2022/01/23 15:18:03;;;;;;;18.20;10.98;;;4.00;99.90;;;;;;5025398;28;20045;-82
2022/01/23 15:20:31;;;;;;;16.88;10.07;;;4.00;99.90;;;;;;5034009;28;20033;-81
2022/01/23 15:22:57;;;;;;;17.00;9.88;;;4.00;99.90;;;;;;5020899;28;20026;-81
2022/01/23 15:25:24;;;;;;;14.95;9.07;;;4.00;99.90;;;;;;5012961;28;20379;-81
2022/01/23 15:27:50;;;;;;;13.40;8.77;;;4.10;99.90;;;;;;5017645;28;20053;-78
2022/01/23 15:30:16;;;;;;;12.90;8.32;;;4.10;99.90;;;;;;5017709;28;20010;-80
2022/01/23 15:32:46;;;;;;;13.10;8.20;;;4.10;99.90;;;;;;5000857;28;20038;-79
2022/01/23 15:35:14;;;;;;;15.25;8.95;;;4.10;99.90;;;;;;5029492;28;20141;-81
2022/01/23 15:37:40;;;;;;;13.80;8.50;;;4.00;99.90;;;;;;5032555;28;20021;-79
2022/01/23 15:40:10;;;;;;;18.33;9.90;;;3.90;99.90;;;;;;5030233;28;20034;-81
2022/01/23 15:42:36;;;;;;;15.05;8.50;;;3.90;99.90;;;;;;5031702;28;20029;-82
2022/01/23 15:45:03;;;;;;;14.00;8.50;;;3.80;99.90;;;;;;5035331;28;20076;-80
2022/01/23 15:47:29;;;;;;;13.88;9.07;;;3.80;99.90;;;;;;5033836;28;20086;-79
2022/01/23 15:49:54;;;;;;;17.48;9.93;;;3.80;99.90;;;;;;5035912;28;20030;-80
2022/01/23 15:52:20;;;;;;;15.70;9.60;;;3.80;99.90;;;;;;5036541;28;20042;-80
2022/01/23 15:54:46;;;;;;;23.20;11.93;;;3.80;99.90;;;;;;5018694;28;20034;-79
2022/01/23 15:57:12;;;;;;;18.70;11.25;;;3.80;99.90;;;;;;5028985;28;20025;-79
2022/01/23 15:59:37;;;;;;;14.95;9.93;;;3.70;99.90;;;;;;5017112;28;20018;-79
2022/01/23 16:02:06;;;;;;;17.73;10.23;;;3.70;99.90;;;;;;5022497;28;20037;-79
2022/01/23 16:04:35;;;;;;;16.38;9.73;;;3.70;99.90;;;;;;5011845;28;20073;-79
2022/01/23 16:07:03;;;;;;;17.35;10.10;;;3.70;99.90;;;;;;5012295;28;20014;-78
2022/01/23 16:09:28;;;;;;;17.48;10.75;;;3.70;99.90;;;;;;5014364;28;20378;-79
2022/01/23 16:11:54;;;;;;;15.43;9.77;;;3.70;99.90;;;;;;5022608;28;20026;-78
2022/01/23 16:14:20;;;;;;;15.35;9.82;;;3.70;99.90;;;;;;5026675;28;20018;-78
2022/01/23 16:16:48;;;;;;;15.30;9.48;;;3.70;99.90;;;;;;5024078;28;20053;-78
2022/01/23 16:19:14;;;;;;;17.50;9.90;;;3.60;99.90;;;;;;5024349;28;20029;-78
2022/01/23 16:21:41;;;;;;;13.95;8.75;;;3.60;99.90;;;;;;5007159;28;20114;-78
2022/01/23 16:24:07;;;;;;;13.75;9.10;;;3.70;99.90;;;;;;5004079;28;20029;-79
2022/01/23 16:26:33;;;;;;;19.27;11.38;;;3.60;99.90;;;;;;5000699;28;20026;-80
2022/01/23 16:28:59;;;;;;;19.25;11.40;;;3.60;99.90;;;;;;4998596;28;20030;-80
2022/01/23 16:31:25;;;;;;;17.55;10.32;;;3.60;99.90;;;;;;5006931;28;20030;-79
2022/01/23 16:33:51;;;;;;;18.88;11.07;;;3.50;99.90;;;;;;5007067;28;20030;-78
2022/01/23 16:36:17;;;;;;;19.80;11.35;;;3.50;99.90;;;;;;5000632;28;20387;-79